createdAt,value
2019-02-05T00:01:24.005Z,29.76
2019-02-05T00:03:53.144Z,29.81
2019-02-05T00:06:22.253Z,29.80
2019-02-05T00:08:50.947Z,29.84
2019-02-05T00:11:19.712Z,29.86
2019-02-05T00:13:48.512Z,29.90
2019-02-05T00:16:17.243Z,29.95
2019-02-05T00:18:45.932Z,29.97
2019-02-05T00:21:15.040Z,29.98
2019-02-05T00:23:43.756Z,30.02
2019-02-05T00:26:12.584Z,30.01
2019-02-05T00:28:41.296Z,30.08
2019-02-05T00:31:09.992Z,30.11
2019-02-05T00:33:38.688Z,30.12
2019-02-05T00:36:07.408Z,30.12
2019-02-05T00:38:36.167Z,30.19
2019-02-05T00:41:04.872Z,30.20
2019-02-05T00:43:33.583Z,30.24
2019-02-05T00:46:02.462Z,30.26
2019-02-05T00:48:31.231Z,30.31
2019-02-05T00:51:00.265Z,30.32
2019-02-05T00:53:29.068Z,30.35
2019-02-05T00:55:57.782Z,30.36
2019-02-05T00:58:26.918Z,30.37
2019-02-05T01:00:55.641Z,30.41
2019-02-05T01:03:24.374Z,30.45
2019-02-05T01:05:53.074Z,30.48
2019-02-05T01:08:22.169Z,30.49
2019-02-05T01:10:50.861Z,30.53
2019-02-05T01:13:19.926Z,30.58
2019-02-05T01:15:48.627Z,30.59
2019-02-05T01:18:17.613Z,30.61
2019-02-05T01:20:46.877Z,30.65
2019-02-05T01:23:15.684Z,30.70
2019-02-05T01:25:44.380Z,30.73
2019-02-05T01:28:13.073Z,30.72
2019-02-05T01:30:41.791Z,30.71
2019-02-05T01:33:10.578Z,30.68
2019-02-05T01:35:39.369Z,30.53
2019-02-05T01:38:08.345Z,30.49
2019-02-05T01:40:37.030Z,30.42
2019-02-05T01:43:05.741Z,30.36
2019-02-05T01:45:34.438Z,30.40
2019-02-05T01:48:03.175Z,30.36
2019-02-05T01:50:31.954Z,30.36
2019-02-05T01:53:01.240Z,30.33
2019-02-05T01:55:30.006Z,30.35
2019-02-05T01:57:58.736Z,30.35
2019-02-05T02:00:30.763Z,30.34
2019-02-05T02:03:00.287Z,30.36
2019-02-05T02:05:29.009Z,30.38
2019-02-05T02:07:58.093Z,30.38
2019-02-05T02:10:28.053Z,30.37
2019-02-05T02:12:56.794Z,30.40
2019-02-05T02:15:25.502Z,30.39
2019-02-05T02:17:54.233Z,30.42
2019-02-05T02:20:22.994Z,30.44
2019-02-05T02:22:51.731Z,30.46
2019-02-05T02:25:20.467Z,30.45
2019-02-05T02:27:49.735Z,30.47
2019-02-05T02:30:30.901Z,30.48
2019-02-05T02:32:59.982Z,30.49
2019-02-05T02:35:28.702Z,30.53
2019-02-05T02:37:57.447Z,30.51
2019-02-05T02:40:26.191Z,30.53
2019-02-05T02:42:54.912Z,30.53
2019-02-05T02:45:24.001Z,30.56
2019-02-05T02:47:52.921Z,30.57
2019-02-05T02:50:22.294Z,30.60
2019-02-05T02:52:51.274Z,30.60
2019-02-05T02:55:20.025Z,30.64
2019-02-05T02:57:48.813Z,30.66
2019-02-05T03:00:18.926Z,30.69
2019-02-05T03:02:47.734Z,30.72
2019-02-05T03:05:18.903Z,30.73
2019-02-05T03:07:48.108Z,30.75
2019-02-05T03:10:19.253Z,30.74
2019-02-05T03:12:47.899Z,30.79
2019-02-05T03:15:16.841Z,30.81
2019-02-05T03:17:45.662Z,30.83
2019-02-05T03:20:14.413Z,30.83
2019-02-05T03:22:45.365Z,30.86
2019-02-05T03:25:14.094Z,30.89
2019-02-05T03:27:42.983Z,30.92
2019-02-05T03:30:17.887Z,30.94
2019-02-05T03:32:47.043Z,30.98
2019-02-05T03:35:16.643Z,31.00
2019-02-05T03:37:45.355Z,31.02
2019-02-05T03:41:02.026Z,31.03
2019-02-05T03:43:30.883Z,31.05
2019-02-05T03:46:00.269Z,31.08
2019-02-05T03:48:28.964Z,31.26
2019-02-05T03:51:06.355Z,31.39
2019-02-05T03:53:35.881Z,31.51
2019-02-05T03:56:46.707Z,31.59
2019-02-05T03:59:48.204Z,31.78
2019-02-05T04:02:58.644Z,32.01
2019-02-05T04:05:49.446Z,32.21
2019-02-05T04:08:53.663Z,32.33
2019-02-05T04:11:35.300Z,32.46
2019-02-05T04:14:42.596Z,32.50
2019-02-05T04:17:59.439Z,32.56
2019-02-05T04:20:55.433Z,32.65
2019-02-05T04:24:00.249Z,32.85
2019-02-05T04:27:05.602Z,32.95
2019-02-05T04:30:05.945Z,32.91
2019-02-05T04:33:06.524Z,32.92
2019-02-05T04:36:18.710Z,32.96
2019-02-05T04:39:16.426Z,32.20
2019-02-05T04:42:29.710Z,30.70
2019-02-05T04:45:17.326Z,30.43
2019-02-05T04:48:13.640Z,30.69
2019-02-05T04:51:03.561Z,30.96
2019-02-05T04:54:04.003Z,30.69
2019-02-05T04:56:56.597Z,30.19
2019-02-05T05:00:06.780Z,30.52
2019-02-05T05:03:33.859Z,30.96
2019-02-05T05:06:36.237Z,31.21
2019-02-05T05:09:36.850Z,31.47
2019-02-05T05:12:05.564Z,31.60
2019-02-05T05:14:34.273Z,31.86
2019-02-05T05:17:03.687Z,31.99
2019-02-05T05:19:33.154Z,32.13
2019-02-05T05:22:01.899Z,32.22
2019-02-05T05:24:30.577Z,32.35
2019-02-05T05:26:59.283Z,32.47
2019-02-05T05:29:27.971Z,32.56
2019-02-05T05:31:56.857Z,32.68
2019-02-05T05:34:25.566Z,32.77
2019-02-05T05:36:53.044Z,32.78
2019-02-05T05:39:21.756Z,32.83
2019-02-05T05:41:50.479Z,32.85
2019-02-05T05:44:19.182Z,32.89
2019-02-05T05:46:47.897Z,32.94
2019-02-05T05:49:16.615Z,33.01
2019-02-05T05:51:45.339Z,33.14
2019-02-05T05:54:14.351Z,33.27
2019-02-05T05:56:43.063Z,33.38
2019-02-05T05:59:11.756Z,33.48
2019-02-05T06:01:43.458Z,33.63
2019-02-05T06:04:12.542Z,33.60
2019-02-05T06:06:41.554Z,29.95
2019-02-05T06:09:10.249Z,30.73
2019-02-05T06:11:39.140Z,30.29
2019-02-05T06:14:07.905Z,30.54
2019-02-05T06:16:36.756Z,31.05
2019-02-05T06:19:05.467Z,31.37
2019-02-05T06:21:34.464Z,31.75
2019-02-05T06:24:03.444Z,32.04
2019-02-05T06:26:32.147Z,32.31
2019-02-05T06:29:00.855Z,32.42
2019-02-05T06:31:29.940Z,32.64
2019-02-05T06:33:58.635Z,32.73
2019-02-05T06:36:27.351Z,32.79
2019-02-05T06:38:56.057Z,32.85
2019-02-05T06:41:24.785Z,32.97
2019-02-05T06:43:53.811Z,33.06
2019-02-05T06:46:22.521Z,33.11
2019-02-05T06:48:51.214Z,33.12
2019-02-05T06:51:20.243Z,33.16
2019-02-05T06:53:49.363Z,33.19
2019-02-05T06:56:18.425Z,33.31
2019-02-05T06:58:47.432Z,33.34
2019-02-05T07:01:16.132Z,33.37
2019-02-05T07:03:44.840Z,33.46
2019-02-05T07:06:13.610Z,33.49
2019-02-05T07:08:42.672Z,33.54
2019-02-05T07:11:11.528Z,33.58
2019-02-05T07:13:40.986Z,33.63
2019-02-05T07:16:09.698Z,33.68
2019-02-05T07:18:38.528Z,33.72
2019-02-05T07:21:07.226Z,33.73
2019-02-05T07:23:35.983Z,33.78
2019-02-05T07:26:04.655Z,33.83
2019-02-05T07:28:33.368Z,33.81
2019-02-05T07:31:02.352Z,33.87
2019-02-05T07:33:31.061Z,33.91
2019-02-05T07:35:59.865Z,33.91
2019-02-05T07:38:28.602Z,33.91
2019-02-05T07:40:57.293Z,33.94
2019-02-05T07:43:26.007Z,33.95
2019-02-05T07:45:54.752Z,33.94
2019-02-05T07:48:23.729Z,33.99
2019-02-05T07:50:52.423Z,34.10
2019-02-05T07:53:21.139Z,34.19
2019-02-05T07:55:49.860Z,34.23
2019-02-05T07:58:18.549Z,34.24
2019-02-05T08:00:47.247Z,34.24
2019-02-05T08:03:15.952Z,34.28
2019-02-05T08:05:44.638Z,34.35
2019-02-05T08:08:13.899Z,34.40
2019-02-05T08:10:42.626Z,34.45
2019-02-05T08:13:11.314Z,34.50
2019-02-05T08:15:40.104Z,34.51
2019-02-05T08:18:08.832Z,34.53
2019-02-05T08:20:37.552Z,34.59
2019-02-05T08:23:06.564Z,34.58
2019-02-05T08:25:35.509Z,34.60
2019-02-05T08:28:04.426Z,34.63
2019-02-05T08:30:35.933Z,34.65
2019-02-05T08:33:04.665Z,34.70
2019-02-05T08:35:33.385Z,34.74
2019-02-05T08:38:02.093Z,34.77
2019-02-05T08:40:30.797Z,34.73
2019-02-05T08:42:59.500Z,34.71
2019-02-05T08:45:29.045Z,34.67
2019-02-05T08:47:57.761Z,34.67
2019-02-05T08:50:27.578Z,34.67
2019-02-05T08:52:56.273Z,34.71
2019-02-05T08:55:25.047Z,34.70
2019-02-05T08:57:55.018Z,34.70
2019-02-05T09:00:29.482Z,34.75
2019-02-05T09:02:58.892Z,34.79
2019-02-05T09:05:27.613Z,34.91
2019-02-05T09:07:56.296Z,35.00
2019-02-05T09:10:27.521Z,34.99
2019-02-05T09:12:56.467Z,34.96
2019-02-05T09:15:29.585Z,34.97
2019-02-05T09:17:55.666Z,34.95
2019-02-05T09:20:24.386Z,34.94
2019-02-05T09:22:53.160Z,34.91
2019-02-05T09:25:22.149Z,34.94
2019-02-05T09:27:50.843Z,35.13
2019-02-05T09:30:21.493Z,35.21
2019-02-05T09:32:51.802Z,35.41
2019-02-05T09:35:20.563Z,35.50
2019-02-05T09:37:49.674Z,35.63
2019-02-05T09:40:23.424Z,35.66
2019-02-05T09:42:52.252Z,35.66
2019-02-05T09:45:21.173Z,35.73
2019-02-05T09:47:50.748Z,35.72
2019-02-05T09:50:19.507Z,35.80
2019-02-05T09:52:48.225Z,35.78
2019-02-05T09:55:16.971Z,35.68
2019-02-05T09:57:45.697Z,35.64
2019-02-05T10:00:17.410Z,35.58
2019-02-05T10:02:46.109Z,35.55
2019-02-05T10:05:16.401Z,35.54
2019-02-05T10:07:45.174Z,35.49
2019-02-05T10:10:15.151Z,35.49
2019-02-05T10:12:46.908Z,35.47
2019-02-05T10:15:19.424Z,35.45
2019-02-05T10:17:48.145Z,35.45
2019-02-05T10:20:17.391Z,35.42
2019-02-05T10:22:46.156Z,35.39
2019-02-05T10:25:15.132Z,35.39
2019-02-05T10:27:43.891Z,35.40
2019-02-05T10:30:16.726Z,35.40
2019-02-05T10:32:46.073Z,35.39
2019-02-05T10:35:14.810Z,35.38
2019-02-05T10:37:43.537Z,35.44
2019-02-05T10:40:12.329Z,35.43
2019-02-05T10:42:43.944Z,35.45
2019-02-05T10:45:12.086Z,35.44
2019-02-05T10:47:40.988Z,35.46
2019-02-05T10:50:11.281Z,35.47
2019-02-05T10:52:40.480Z,35.46
2019-02-05T10:55:11.193Z,35.46
2019-02-05T10:57:40.045Z,35.48
2019-02-05T11:00:15.126Z,35.50
2019-02-05T11:02:44.211Z,35.55
2019-02-05T11:05:15.172Z,35.59
2019-02-05T11:07:44.204Z,35.59
2019-02-05T11:10:13.522Z,35.61
2019-02-05T11:12:42.204Z,35.65
2019-02-05T11:15:13.332Z,35.67
2019-02-05T11:17:42.298Z,35.65
2019-02-05T11:20:14.145Z,35.66
2019-02-05T11:22:43.132Z,35.67
2019-02-05T11:25:11.962Z,35.73
2019-02-05T11:27:40.755Z,35.75
2019-02-05T11:30:20.285Z,35.76
2019-02-05T11:32:44.467Z,35.79
2019-02-05T11:35:13.252Z,35.81
2019-02-05T11:37:41.976Z,35.83
2019-02-05T11:40:13.125Z,35.88
2019-02-05T11:42:41.851Z,35.87
2019-02-05T11:45:12.110Z,35.89
2019-02-05T11:47:40.859Z,35.87
2019-02-05T11:50:11.053Z,35.89
2019-02-05T11:52:39.739Z,35.88
2019-02-05T11:55:10.975Z,35.87
2019-02-05T11:57:39.707Z,35.88
2019-02-05T12:00:12.205Z,35.86
2019-02-05T12:02:40.995Z,35.87
2019-02-05T12:05:09.756Z,35.90
2019-02-05T12:07:38.862Z,35.86
2019-02-05T12:10:09.937Z,35.88
2019-02-05T12:12:38.874Z,35.89
2019-02-05T12:15:08.885Z,35.91
2019-02-05T12:17:37.673Z,35.93
2019-02-05T12:20:08.611Z,35.97
2019-02-05T12:22:37.340Z,35.99
2019-02-05T12:25:08.629Z,35.99
2019-02-05T12:27:38.090Z,35.97
2019-02-05T12:30:10.698Z,35.98
2019-02-05T12:32:39.411Z,35.92
2019-02-05T12:35:08.450Z,35.94
2019-02-05T12:37:37.141Z,35.89
2019-02-05T12:40:06.887Z,35.84
2019-02-05T12:42:35.984Z,35.87
2019-02-05T12:45:06.499Z,35.95
2019-02-05T12:47:35.219Z,36.05
2019-02-05T12:50:04.678Z,36.14
2019-02-05T12:52:33.754Z,36.48
2019-02-05T12:55:12.692Z,36.55
2019-02-05T12:57:33.212Z,36.62
2019-02-05T13:00:05.705Z,36.82
2019-02-05T13:02:34.399Z,37.02
2019-02-05T13:05:03.773Z,37.23
2019-02-05T13:07:32.484Z,37.12
2019-02-05T13:10:01.670Z,37.18
2019-02-05T13:12:30.562Z,37.21
2019-02-05T13:15:00.459Z,37.25
2019-02-05T13:17:29.201Z,37.29
2019-02-05T13:19:57.975Z,37.56
2019-02-05T13:22:26.724Z,37.67
2019-02-05T13:24:55.467Z,37.67
2019-02-05T13:27:24.181Z,37.45
2019-02-05T13:29:53.239Z,37.09
2019-02-05T13:32:21.947Z,37.03
2019-02-05T13:34:50.673Z,37.07
2019-02-05T13:37:19.552Z,37.11
2019-02-05T13:39:48.276Z,37.12
2019-02-05T13:42:17.076Z,37.14
2019-02-05T13:44:46.201Z,37.11
2019-02-05T13:47:17.746Z,37.15
2019-02-05T13:49:46.836Z,37.18
2019-02-05T13:52:15.943Z,37.21
2019-02-05T13:54:44.653Z,37.22
2019-02-05T13:57:13.370Z,37.26
2019-02-05T13:59:42.315Z,37.23
2019-02-05T14:02:11.055Z,37.30
2019-02-05T14:04:39.883Z,37.28
2019-02-05T14:07:08.796Z,37.37
2019-02-05T14:09:37.509Z,37.38
2019-02-05T14:12:06.237Z,37.40
2019-02-05T14:14:35.250Z,37.40
2019-02-05T14:17:03.977Z,37.38
2019-02-05T14:19:32.934Z,37.36
2019-02-05T14:22:01.617Z,37.42
2019-02-05T14:24:30.244Z,37.35
2019-02-05T14:26:59.093Z,37.40
2019-02-05T14:29:28.115Z,37.46
2019-02-05T14:31:56.939Z,37.57
2019-02-05T14:34:25.618Z,37.62
2019-02-05T14:36:54.219Z,37.67
2019-02-05T14:39:23.344Z,37.80
2019-02-05T14:41:51.996Z,37.86
2019-02-05T14:44:20.587Z,37.84
2019-02-05T14:46:49.737Z,37.95
2019-02-05T14:49:18.506Z,38.00
2019-02-05T14:51:47.525Z,38.02
2019-02-05T14:54:16.239Z,38.09
2019-02-05T14:56:44.903Z,38.17
2019-02-05T14:59:13.552Z,38.21
2019-02-05T15:01:43.425Z,38.25
2019-02-05T15:04:12.209Z,38.30
2019-02-05T15:06:40.822Z,38.38
2019-02-05T15:09:09.539Z,38.58
2019-02-05T15:11:38.166Z,38.53
2019-02-05T15:14:06.883Z,38.53
2019-02-05T15:16:35.535Z,38.94
2019-02-05T15:19:17.145Z,38.80
2019-02-05T15:21:45.855Z,39.30
2019-02-05T15:24:14.495Z,39.26
2019-02-05T15:26:43.138Z,39.47
2019-02-05T15:29:12.072Z,39.50
2019-02-05T15:31:40.720Z,39.59
2019-02-05T15:34:22.150Z,39.59
2019-02-05T15:36:51.527Z,39.58
2019-02-05T15:39:20.251Z,39.58
2019-02-05T15:41:48.899Z,39.47
2019-02-05T15:44:17.530Z,39.46
2019-02-05T15:46:46.207Z,39.44
2019-02-05T15:49:14.814Z,39.30
2019-02-05T15:51:43.709Z,39.24
2019-02-05T15:54:12.331Z,39.25
2019-02-05T15:56:41.049Z,39.20
2019-02-05T15:59:10.050Z,39.17
2019-02-05T16:01:38.713Z,39.16
2019-02-05T16:04:08.128Z,39.10
2019-02-05T16:06:36.815Z,39.10
2019-02-05T16:09:08.245Z,39.10
2019-02-05T16:11:36.997Z,39.08
2019-02-05T16:14:06.027Z,39.05
2019-02-05T16:16:34.673Z,39.08
2019-02-05T16:19:03.466Z,39.06
2019-02-05T16:21:32.276Z,39.05
2019-02-05T16:24:00.972Z,39.03
2019-02-05T16:26:29.722Z,39.03
2019-02-05T16:28:58.354Z,39.04
2019-02-05T16:31:28.011Z,39.04
2019-02-05T16:33:56.745Z,38.87
2019-02-05T16:36:25.421Z,38.87
2019-02-05T16:38:55.797Z,39.01
2019-02-05T16:41:24.467Z,39.11
2019-02-05T16:43:53.132Z,38.90
2019-02-05T16:46:21.945Z,35.77
2019-02-05T16:48:50.686Z,35.77
2019-02-05T16:51:19.342Z,36.45
2019-02-05T16:53:48.024Z,35.79
2019-02-05T16:56:17.947Z,35.79
2019-02-05T16:58:46.789Z,35.88
2019-02-05T17:01:15.839Z,35.66
2019-02-05T17:03:44.509Z,35.33
2019-02-05T17:06:14.881Z,34.76
2019-02-05T17:08:43.647Z,34.42
2019-02-05T17:11:12.305Z,34.17
2019-02-05T17:13:40.948Z,34.07
2019-02-05T17:16:09.850Z,34.09
2019-02-05T17:18:38.769Z,34.11
2019-02-05T17:21:07.388Z,34.12
2019-02-05T17:23:36.025Z,34.25
2019-02-05T17:26:04.927Z,34.16
2019-02-05T17:28:33.537Z,34.11
2019-02-05T17:31:02.185Z,33.93
2019-02-05T17:33:30.966Z,33.79
2019-02-05T17:36:02.657Z,33.76
2019-02-05T17:38:31.278Z,33.77
2019-02-05T17:40:59.958Z,33.92
2019-02-05T17:43:29.131Z,34.25
2019-02-05T17:45:57.854Z,34.53
2019-02-05T17:48:26.696Z,34.53
2019-02-05T17:50:55.459Z,34.41
2019-02-05T17:53:24.226Z,34.25
2019-02-05T17:55:53.182Z,34.04
2019-02-05T17:58:23.591Z,33.99
2019-02-05T18:00:56.206Z,32.85
2019-02-05T18:03:24.855Z,31.75
2019-02-05T18:05:54.159Z,31.01
2019-02-05T18:08:22.889Z,31.47
2019-02-05T18:10:51.538Z,31.74
2019-02-05T18:13:20.453Z,32.01
2019-02-05T18:15:49.755Z,32.18
2019-02-05T18:18:18.796Z,32.21
2019-02-05T18:20:48.136Z,32.24
2019-02-05T18:23:16.842Z,32.26
2019-02-05T18:25:45.462Z,32.21
2019-02-05T18:28:14.073Z,32.14
2019-02-05T18:30:42.661Z,32.09
2019-02-05T18:33:11.723Z,32.02
2019-02-05T18:35:40.341Z,32.01
2019-02-05T18:38:11.368Z,31.96
2019-02-05T18:40:39.936Z,31.95
2019-02-05T18:43:08.528Z,31.91
2019-02-05T18:45:37.516Z,31.89
2019-02-05T18:48:06.499Z,31.88
2019-02-05T18:50:35.126Z,31.90
2019-02-05T18:53:03.750Z,31.89
2019-02-05T18:55:32.730Z,31.88
2019-02-05T18:58:08.924Z,31.89
2019-02-05T19:00:33.687Z,31.87
2019-02-05T19:03:02.314Z,31.80
2019-02-05T19:05:31.172Z,31.82
2019-02-05T19:08:00.051Z,31.78
2019-02-05T19:10:28.731Z,31.79
2019-02-05T19:12:57.349Z,31.75
2019-02-05T19:15:30.626Z,31.70
2019-02-05T19:17:59.235Z,31.66
2019-02-05T19:20:29.422Z,31.65
2019-02-05T19:22:58.020Z,31.64
2019-02-05T19:25:43.370Z,31.68
2019-02-05T19:28:18.989Z,31.68
2019-02-05T19:30:48.477Z,31.55
2019-02-05T19:33:26.763Z,31.52
2019-02-05T19:35:47.850Z,31.51
2019-02-05T19:38:16.472Z,31.51
2019-02-05T19:40:45.096Z,31.54
2019-02-05T19:43:13.854Z,31.57
2019-02-05T19:45:55.047Z,31.54
2019-02-05T19:48:45.574Z,31.56
2019-02-05T19:51:16.143Z,31.54
2019-02-05T19:53:44.611Z,31.54
2019-02-05T19:56:14.618Z,31.58
2019-02-05T19:58:43.844Z,31.61
2019-02-05T20:01:13.041Z,31.62
2019-02-05T20:03:42.037Z,31.61
2019-02-05T20:06:12.925Z,31.61
2019-02-05T20:08:42.701Z,31.63
2019-02-05T20:11:11.886Z,31.66
2019-02-05T20:13:41.496Z,31.62
2019-02-05T20:16:10.239Z,31.69
2019-02-05T20:18:39.210Z,32.14
2019-02-05T20:21:08.004Z,31.92
2019-02-05T20:23:36.699Z,31.76
2019-02-05T20:26:05.345Z,31.72
2019-02-05T20:28:35.099Z,31.75
2019-02-05T20:31:03.922Z,31.72
2019-02-05T20:33:32.602Z,31.74
2019-02-05T20:36:01.430Z,31.76
2019-02-05T20:38:30.092Z,31.75
2019-02-05T20:40:58.813Z,31.75
2019-02-05T20:43:27.519Z,31.78
2019-02-05T20:45:56.995Z,31.63
2019-02-05T20:48:25.883Z,31.54
2019-02-05T20:50:54.778Z,31.55
2019-02-05T20:53:23.889Z,31.57
2019-02-05T20:55:53.006Z,31.60
2019-02-05T20:58:21.689Z,31.60
2019-02-05T21:00:50.586Z,31.60
2019-02-05T21:03:19.815Z,31.60
2019-02-05T21:05:48.782Z,31.60
2019-02-05T21:08:17.936Z,31.60
2019-02-05T21:10:46.578Z,31.64
2019-02-05T21:13:15.871Z,31.64
2019-02-05T21:15:44.620Z,31.64
2019-02-05T21:18:13.366Z,31.68
2019-02-05T21:20:42.412Z,31.67
2019-02-05T21:23:11.034Z,31.78
2019-02-05T21:25:39.841Z,31.82
2019-02-05T21:28:08.512Z,31.82
2019-02-05T21:30:37.160Z,31.83
2019-02-05T21:33:05.816Z,31.92
2019-02-05T21:35:34.477Z,31.96
2019-02-05T21:38:03.097Z,31.90
2019-02-05T21:40:31.845Z,31.85
2019-02-05T21:43:00.788Z,31.82
2019-02-05T21:45:29.499Z,31.75
2019-02-05T21:47:58.144Z,31.75
2019-02-05T21:50:26.799Z,31.72
2019-02-05T21:52:55.448Z,31.70
2019-02-05T21:55:24.312Z,31.70
2019-02-05T21:57:52.985Z,31.68
2019-02-05T22:00:26.562Z,31.67
2019-02-05T22:02:55.220Z,31.70
2019-02-05T22:05:24.128Z,31.67
2019-02-05T22:07:52.807Z,31.69
2019-02-05T22:10:21.857Z,31.73
2019-02-05T22:12:50.499Z,31.72
2019-02-05T22:15:19.593Z,31.78
2019-02-05T22:17:48.299Z,31.81
2019-02-05T22:20:18.863Z,31.84
2019-02-05T22:22:47.879Z,31.87
2019-02-05T22:25:21.879Z,31.85
2019-02-05T22:27:50.910Z,31.90
2019-02-05T22:30:21.669Z,31.94
2019-02-05T22:32:50.521Z,31.95
2019-02-05T22:35:19.526Z,31.99
2019-02-05T22:37:48.520Z,31.98
2019-02-05T22:40:19.217Z,32.01
2019-02-05T22:42:48.220Z,32.01
2019-02-05T22:45:17.105Z,32.04
2019-02-05T22:47:45.925Z,32.01
2019-02-05T22:50:19.729Z,32.04
2019-02-05T22:52:48.623Z,32.11
2019-02-05T22:55:17.314Z,32.13
2019-02-05T22:57:46.407Z,32.13
2019-02-05T23:00:48.222Z,32.20
2019-02-05T23:03:20.047Z,32.21
2019-02-05T23:06:19.105Z,32.19
2019-02-05T23:08:47.876Z,32.25
2019-02-05T23:12:16.568Z,32.26
2019-02-05T23:14:47.762Z,32.28
2019-02-05T23:17:16.551Z,32.31
2019-02-05T23:19:45.252Z,32.31
2019-02-05T23:22:14.004Z,32.34
2019-02-05T23:24:42.655Z,32.37
2019-02-05T23:27:11.380Z,32.40
2019-02-05T23:29:40.378Z,32.41
2019-02-05T23:32:09.143Z,32.40
2019-02-05T23:34:37.884Z,32.44
2019-02-05T23:37:06.926Z,32.45
2019-02-05T23:39:35.574Z,32.51
2019-02-05T23:42:04.756Z,32.51
2019-02-05T23:44:33.383Z,32.55
2019-02-05T23:47:02.100Z,32.58
2019-02-05T23:49:30.847Z,32.60
2019-02-05T23:51:59.508Z,32.62
2019-02-05T23:54:28.166Z,32.61
2019-02-05T23:56:56.808Z,32.60
2019-02-05T23:59:25.478Z,32.59
